Time;durP1;ratioP1;P1;durP2;ratioP2;P2;SDS_P1;SDS_P2;PMS_P1;PMS_P2;Temp;Humidity;BMP_temperature;BMP_pressure;BME280_temperature;BME280_humidity;BME280_pressure;Samples;Min_cycle;Max_cycle;Signal;HPM_P1;HPM_P2
2023/06/05 00:01:10;;;;;;;0.00;0.00;;;;;;;13.19;64.58;101157.69;6118694;23;20021;-70
2023/06/05 00:03:36;;;;;;;0.00;0.00;;;;;;;13.17;65.34;101162.59;6114886;23;20116;-70
2023/06/05 00:06:02;;;;;;;0.00;0.00;;;;;;;13.19;65.40;101157.69;6119144;23;20010;-70
2023/06/05 00:08:28;;;;;;;0.00;0.00;;;;;;;13.23;65.29;101161.56;6141571;23;20017;-70
2023/06/05 00:10:53;;;;;;;0.00;0.00;;;;;;;13.18;65.05;101167.00;6144667;23;20070;-70
2023/06/05 00:13:19;;;;;;;0.00;0.00;;;;;;;13.12;65.47;101165.31;6144515;23;20013;-70
2023/06/05 00:15:44;;;;;;;0.00;0.00;;;;;;;13.06;65.04;101172.69;6112038;23;20005;-72
2023/06/05 00:18:09;;;;;;;0.00;0.00;;;;;;;12.93;65.31;101161.06;6143534;23;20578;-70
2023/06/05 00:20:35;;;;;;;0.00;0.00;;;;;;;12.82;65.80;101164.00;6119782;23;20058;-71
2023/06/05 00:23:00;;;;;;;0.00;0.00;;;;;;;12.81;66.27;101168.69;6114798;23;20024;-71
2023/06/05 00:25:26;;;;;;;0.00;0.00;;;;;;;12.75;66.61;101156.84;6143062;23;20014;-71
2023/06/05 00:27:51;;;;;;;0.00;0.00;;;;;;;12.81;66.65;101167.88;6140177;23;20423;-70
2023/06/05 00:30:17;;;;;;;0.00;0.00;;;;;;;12.71;66.77;101158.44;6145193;23;20424;-72
2023/06/05 00:32:42;;;;;;;0.00;0.00;;;;;;;12.67;66.54;101160.06;6115449;23;20016;-71
2023/06/05 00:35:08;;;;;;;0.00;0.00;;;;;;;12.68;66.41;101169.13;6093732;23;20032;-71
2023/06/05 00:37:34;;;;;;;0.00;0.00;;;;;;;12.64;67.17;101157.84;6118954;23;20029;-72
2023/06/05 00:40:00;;;;;;;0.00;0.00;;;;;;;12.61;66.86;101163.84;6111174;23;20735;-71
2023/06/05 00:42:28;;;;;;;0.00;0.00;;;;;;;12.53;67.44;101156.94;6093211;23;20008;-71
2023/06/05 00:44:54;;;;;;;0.00;0.00;;;;;;;12.47;67.29;101151.66;6112617;23;20017;-70
2023/06/05 00:47:20;;;;;;;0.00;0.00;;;;;;;12.45;67.48;101159.31;6145104;23;20017;-70
2023/06/05 00:49:46;;;;;;;0.00;0.00;;;;;;;12.37;67.55;101147.75;6090055;23;20005;-70
2023/06/05 00:52:12;;;;;;;0.00;0.00;;;;;;;12.34;67.30;101159.22;6143532;23;20005;-70
2023/06/05 00:54:38;;;;;;;0.00;0.00;;;;;;;12.25;68.15;101155.31;6143796;23;20010;-70
2023/06/05 00:57:04;;;;;;;0.00;0.00;;;;;;;12.19;68.27;101151.69;6138049;23;20029;-71
2023/06/05 00:59:31;;;;;;;0.00;0.00;;;;;;;12.11;68.16;101148.59;6142734;23;20002;-70
2023/06/05 01:01:59;;;;;;;0.00;0.00;;;;;;;12.07;68.89;101161.16;6137824;23;20096;-71
2023/06/05 01:04:27;;;;;;;0.00;0.00;;;;;;;11.88;68.33;101145.88;6114636;23;20020;-71
2023/06/05 01:06:53;;;;;;;0.00;0.00;;;;;;;11.79;68.56;101146.56;6139948;23;20450;-70
2023/06/05 01:09:19;;;;;;;0.00;0.00;;;;;;;11.79;69.09;101152.03;6116274;23;20321;-71
2023/06/05 01:11:58;;;;;;;0.00;0.00;;;;;;;11.74;68.88;101149.22;6116430;23;20009;-70
2023/06/05 01:14:27;;;;;;;0.00;0.00;;;;;;;11.67;68.87;101144.78;6110488;23;20786;-71
2023/06/05 01:16:54;;;;;;;0.00;0.00;;;;;;;11.60;69.41;101149.63;6142972;23;20005;-69
2023/06/05 01:19:28;;;;;;;0.00;0.00;;;;;;;11.47;69.34;101139.06;6113487;23;20424;-72
2023/06/05 01:22:03;;;;;;;0.00;0.00;;;;;;;11.46;69.06;101143.72;6144088;23;20016;-71
2023/06/05 01:24:28;;;;;;;;;;;;;;;11.38;69.58;101143.34;6138119;23;20016;-70
2023/06/05 01:27:17;;;;;;;0.00;0.00;;;;;;;11.34;69.48;101141.06;6145503;23;19916;-70
2023/06/05 01:30:03;;;;;;;0.00;0.00;;;;;;;11.30;69.70;101139.09;6142451;23;20013;-71
2023/06/05 01:32:36;;;;;;;0.00;0.00;;;;;;;11.22;69.70;101136.81;6145692;23;20093;-70
2023/06/05 01:35:06;;;;;;;0.00;0.00;;;;;;;11.15;69.98;101139.72;6114683;23;20005;-71
2023/06/05 01:37:36;;;;;;;0.00;0.00;;;;;;;11.11;69.81;101146.78;6139814;23;20017;-70
2023/06/05 01:40:03;;;;;;;0.00;0.00;;;;;;;11.07;69.94;101142.88;6138370;23;20196;-71
2023/06/05 01:42:29;;;;;;;0.00;0.00;;;;;;;11.06;70.59;101142.06;6117303;23;20006;-71
2023/06/05 01:44:56;;;;;;;0.00;0.00;;;;;;;11.04;70.31;101140.66;6138353;23;20006;-71
2023/06/05 01:47:22;;;;;;;0.00;0.00;;;;;;;10.95;70.52;101135.63;6116196;23;20037;-71
2023/06/05 01:49:47;;;;;;;0.00;0.00;;;;;;;10.95;70.96;101143.00;6109434;23;20373;-71
2023/06/05 01:52:13;;;;;;;0.00;0.00;;;;;;;10.93;70.90;101145.97;6141336;23;20013;-70
2023/06/05 01:54:39;;;;;;;0.00;0.00;;;;;;;10.86;71.14;101145.31;6140687;23;20023;-70
2023/06/05 01:57:05;;;;;;;0.00;0.00;;;;;;;10.72;71.10;101135.78;6110718;23;20019;-70
2023/06/05 01:59:33;;;;;;;0.00;0.00;;;;;;;10.68;71.45;101145.59;6117602;23;20005;-71
2023/06/05 02:02:00;;;;;;;0.00;0.00;;;;;;;10.59;71.15;101140.53;6111659;23;20025;-71
2023/06/05 02:04:27;;;;;;;0.00;0.00;;;;;;;10.53;71.71;101144.28;6116874;23;20020;-70
2023/06/05 02:06:53;;;;;;;0.00;0.00;;;;;;;10.50;71.92;101147.50;6138674;23;20012;-71
2023/06/05 02:09:18;;;;;;;0.00;0.00;;;;;;;10.39;71.72;101129.25;6091860;23;20010;-71
2023/06/05 02:11:45;;;;;;;0.00;0.00;;;;;;;10.30;71.74;101126.06;6139240;23;20043;-71
2023/06/05 02:14:15;;;;;;;0.00;0.00;;;;;;;10.34;72.25;101134.63;6137040;23;20013;-72
2023/06/05 02:16:41;;;;;;;0.00;0.00;;;;;;;10.34;71.80;101131.91;6113903;23;20328;-70
2023/06/05 02:19:07;;;;;;;0.00;0.00;;;;;;;10.23;71.80;101131.69;6114570;23;20013;-71
2023/06/05 02:21:33;;;;;;;0.00;0.00;;;;;;;10.17;72.13;101132.69;6139333;23;20063;-70
2023/06/05 02:23:59;;;;;;;0.00;0.00;;;;;;;10.11;72.46;101125.47;6142361;23;20384;-72
2023/06/05 02:26:27;;;;;;;0.00;0.00;;;;;;;10.02;72.37;101129.69;6137951;22;20020;-71
2023/06/05 02:28:55;;;;;;;0.00;0.00;;;;;;;10.00;72.77;101132.63;6141999;23;20104;-72
2023/06/05 02:31:25;;;;;;;0.00;0.00;;;;;;;9.92;72.68;101131.13;6139055;23;20010;-71
2023/06/05 02:33:55;;;;;;;0.00;0.00;;;;;;;9.87;72.47;101139.25;6141134;23;20421;-72
2023/06/05 02:36:22;;;;;;;0.00;0.00;;;;;;;9.75;72.68;101125.66;6111521;23;20020;-71
2023/06/05 02:38:49;;;;;;;0.00;0.00;;;;;;;9.73;73.07;101133.22;6141816;23;20035;-70
2023/06/05 02:41:16;;;;;;;0.00;0.00;;;;;;;9.65;73.20;101130.06;6137130;23;20347;-70
2023/06/05 02:43:41;;;;;;;0.00;0.00;;;;;;;9.59;73.51;101138.16;6117101;23;20096;-71
2023/06/05 02:46:07;;;;;;;0.00;0.00;;;;;;;9.50;72.97;101123.22;6115884;23;20431;-70
2023/06/05 02:48:32;;;;;;;0.00;0.00;;;;;;;9.52;73.27;101147.53;6110858;23;20092;-70
2023/06/05 02:50:57;;;;;;;0.00;0.00;;;;;;;9.43;73.17;101138.88;6143621;23;20013;-71
2023/06/05 02:53:23;;;;;;;0.00;0.00;;;;;;;9.39;73.60;101148.66;6112399;23;20009;-71
2023/06/05 02:55:49;;;;;;;0.00;0.00;;;;;;;9.31;73.97;101136.19;6114623;22;20005;-70
2023/06/05 02:58:17;;;;;;;0.00;0.00;;;;;;;9.26;74.29;101130.63;6141001;23;20420;-70
2023/06/05 03:00:44;;;;;;;0.00;0.00;;;;;;;9.26;74.72;101139.66;6114209;23;20328;-71
2023/06/05 03:03:16;;;;;;;0.00;0.00;;;;;;;9.15;75.11;101124.13;6093551;23;20718;-70
2023/06/05 03:05:42;;;;;;;0.00;0.00;;;;;;;9.13;75.26;101133.63;6139045;23;20019;-71
2023/06/05 03:08:08;;;;;;;0.00;0.00;;;;;;;9.04;75.17;101127.69;6116604;23;20081;-71
2023/06/05 03:10:36;;;;;;;0.00;0.00;;;;;;;9.04;75.68;101141.34;6137027;23;20092;-70
2023/06/05 03:13:02;;;;;;;0.00;0.00;;;;;;;8.96;74.83;101138.97;6214559;22;20010;-71
2023/06/05 03:15:27;;;;;;;0.00;0.00;;;;;;;8.90;75.93;101141.56;6138060;23;20025;-71
2023/06/05 03:17:53;;;;;;;0.00;0.00;;;;;;;8.84;75.47;101119.88;6145134;23;20005;-71
2023/06/05 03:20:19;;;;;;;0.00;0.00;;;;;;;8.82;75.76;101125.56;6116867;23;20028;-71
2023/06/05 03:22:44;;;;;;;0.00;0.00;;;;;;;8.84;76.23;101126.16;6109861;23;20194;-70
2023/06/05 03:25:10;;;;;;;0.00;0.00;;;;;;;8.82;76.76;101117.38;6142736;23;20087;-70
2023/06/05 03:27:36;;;;;;;0.00;0.00;;;;;;;8.77;76.74;101125.44;6141048;23;20009;-71
2023/06/05 03:30:01;;;;;;;0.00;0.00;;;;;;;8.75;77.14;101130.31;6141408;23;20010;-70
2023/06/05 03:32:27;;;;;;;0.00;0.00;;;;;;;8.71;76.89;101132.66;6137656;23;20006;-71
2023/06/05 03:34:52;;;;;;;0.00;0.00;;;;;;;8.63;77.15;101124.00;6141192;23;20001;-70
2023/06/05 03:37:18;;;;;;;0.00;0.00;;;;;;;8.55;77.24;101133.38;6133926;22;20029;-69
2023/06/05 03:39:43;;;;;;;0.00;0.00;;;;;;;8.45;77.38;101123.03;6111530;23;20006;-70
2023/06/05 03:42:11;;;;;;;0.00;0.00;;;;;;;8.43;77.93;101136.06;6084436;23;20010;-70
2023/06/05 03:44:37;;;;;;;0.00;0.00;;;;;;;8.38;77.59;101134.03;6108920;23;20029;-70
2023/06/05 03:47:03;;;;;;;0.00;0.00;;;;;;;8.35;77.11;101130.94;6087222;23;20020;-71
2023/06/05 03:49:29;;;;;;;0.05;0.05;;;;;;;8.32;78.04;101134.13;6106989;23;20374;-70
2023/06/05 03:52:01;;;;;;;0.00;0.00;;;;;;;8.26;77.74;101129.63;6085804;23;20105;-71
2023/06/05 03:54:32;;;;;;;0.00;0.00;;;;;;;8.24;77.48;101129.03;6080477;23;20721;-69
2023/06/05 03:57:00;;;;;;;0.00;0.00;;;;;;;8.23;77.64;101130.91;6110234;23;20360;-69
2023/06/05 03:59:27;;;;;;;0.00;0.00;;;;;;;8.24;78.29;101138.03;6107288;23;20072;-69
2023/06/05 04:01:53;;;;;;;0.00;0.00;;;;;;;8.29;78.44;101129.16;6085088;23;20063;-69
2023/06/05 04:04:20;;;;;;;0.00;0.00;;;;;;;8.45;78.31;101138.56;6111106;23;20336;-70
2023/06/05 04:06:48;;;;;;;0.00;0.00;;;;;;;8.66;77.46;101129.84;6112544;23;20080;-70
2023/06/05 04:09:13;;;;;;;0.00;0.00;;;;;;;8.90;76.96;101136.09;6110437;23;20056;-70
2023/06/05 04:11:44;;;;;;;0.00;0.00;;;;;;;9.13;76.20;101141.81;6057179;23;20028;-70
2023/06/05 04:14:10;;;;;;;0.00;0.00;;;;;;;9.28;75.92;101135.84;6110832;23;20009;-70
2023/06/05 04:16:42;;;;;;;0.00;0.00;;;;;;;9.43;75.72;101133.44;6109587;23;20006;-70
2023/06/05 04:19:11;;;;;;;0.00;0.00;;;;;;;9.61;75.82;101141.47;6085086;23;20051;-70
2023/06/05 04:21:38;;;;;;;0.00;0.00;;;;;;;9.75;75.04;101139.31;6110136;23;20032;-71
2023/06/05 04:24:06;;;;;;;0.00;0.00;;;;;;;9.89;74.90;101145.28;6085247;23;20012;-70
2023/06/05 04:26:33;;;;;;;0.00;0.00;;;;;;;10.05;74.66;101149.13;6110403;23;20017;-69
2023/06/05 04:28:59;;;;;;;0.00;0.00;;;;;;;10.11;74.46;101136.41;6112217;23;20014;-70
2023/06/05 04:31:25;;;;;;;0.00;0.00;;;;;;;10.17;73.72;101140.88;6111458;23;20429;-69
2023/06/05 04:33:50;;;;;;;0.00;0.00;;;;;;;10.12;74.01;101140.81;6109831;23;20089;-70
2023/06/05 04:36:17;;;;;;;0.00;0.00;;;;;;;10.19;73.93;101146.94;6111755;23;20131;-70
2023/06/05 04:38:44;;;;;;;0.00;0.00;;;;;;;10.25;73.44;101143.22;6105845;23;20021;-69
2023/06/05 04:41:10;;;;;;;0.00;0.00;;;;;;;10.29;73.48;101129.88;6141190;23;20348;-71
2023/06/05 04:43:36;;;;;;;0.00;0.00;;;;;;;10.48;73.36;101150.50;6138922;23;20009;-71
2023/06/05 04:46:02;;;;;;;0.00;0.00;;;;;;;10.55;73.13;101139.38;6140349;22;20013;-69
2023/06/05 04:48:28;;;;;;;0.00;0.00;;;;;;;10.62;72.70;101140.03;6118113;23;20080;-71
2023/06/05 04:50:55;;;;;;;0.10;0.10;;;;;;;10.60;72.43;101134.00;6137734;23;20044;-71
2023/06/05 04:53:21;;;;;;;0.00;0.00;;;;;;;10.68;71.95;101137.41;6117581;23;20010;-71
2023/06/05 04:55:47;;;;;;;0.00;0.00;;;;;;;10.62;72.24;101134.56;6135847;23;20010;-70
2023/06/05 04:58:13;;;;;;;0.00;0.00;;;;;;;10.73;72.13;101151.13;6143149;23;20001;-69
2023/06/05 05:00:39;;;;;;;0.00;0.00;;;;;;;10.82;71.93;101155.13;6137367;23;20009;-71
2023/06/05 05:03:08;;;;;;;0.00;0.00;;;;;;;10.88;71.78;101162.34;6140491;23;20340;-70
2023/06/05 05:05:34;;;;;;;0.00;0.00;;;;;;;10.89;71.36;101155.75;6141088;23;20045;-71
2023/06/05 05:08:00;;;;;;;0.00;0.00;;;;;;;10.95;71.58;101160.25;6111840;23;20017;-69
2023/06/05 05:10:28;;;;;;;0.00;0.00;;;;;;;10.96;71.36;101153.69;6143971;23;20156;-71
2023/06/05 05:12:54;;;;;;;0.00;0.00;;;;;;;11.08;70.49;101142.66;6134206;23;20017;-71
2023/06/05 05:15:20;;;;;;;0.00;0.00;;;;;;;11.20;70.14;101155.38;6117930;23;20005;-71
2023/06/05 05:17:45;;;;;;;0.00;0.00;;;;;;;11.23;70.24;101161.22;6137441;23;20135;-72
2023/06/05 05:20:11;;;;;;;0.00;0.00;;;;;;;11.26;69.21;101166.16;6113813;23;20018;-71
2023/06/05 05:22:37;;;;;;;0.00;0.00;;;;;;;11.30;69.08;101161.84;6141476;23;20013;-70
2023/06/05 05:25:03;;;;;;;0.00;0.00;;;;;;;11.27;69.31;101167.84;6136044;23;20013;-70
2023/06/05 05:27:28;;;;;;;0.00;0.00;;;;;;;11.29;69.04;101154.72;6117020;23;20093;-70
2023/06/05 05:29:53;;;;;;;0.00;0.00;;;;;;;11.32;68.46;101154.19;6143078;23;20088;-70
2023/06/05 05:32:19;;;;;;;0.00;0.00;;;;;;;11.37;67.87;101152.63;6111224;23;20010;-69
2023/06/05 05:34:45;;;;;;;0.00;0.00;;;;;;;11.45;68.36;101157.66;6143200;23;20055;-70
2023/06/05 05:37:11;;;;;;;0.00;0.00;;;;;;;11.39;67.44;101147.69;6135983;23;20373;-69
2023/06/05 05:39:36;;;;;;;0.00;0.00;;;;;;;11.41;67.82;101156.50;6118314;23;20014;-71
2023/06/05 05:42:02;;;;;;;0.00;0.00;;;;;;;11.45;67.62;101158.47;6112907;23;20394;-71
2023/06/05 05:44:28;;;;;;;0.00;0.00;;;;;;;11.57;67.46;101152.06;6090703;23;20014;-70
2023/06/05 05:46:53;;;;;;;0.00;0.00;;;;;;;11.73;67.03;101155.81;6117592;23;20009;-70
2023/06/05 05:49:18;;;;;;;0.00;0.00;;;;;;;11.80;66.64;101153.72;6110544;23;20017;-70
2023/06/05 05:51:44;;;;;;;0.00;0.00;;;;;;;11.84;66.46;101149.34;6117111;23;20092;-71
2023/06/05 05:54:09;;;;;;;0.00;0.00;;;;;;;11.91;66.05;101160.94;6110504;23;20014;-70
2023/06/05 05:56:36;;;;;;;0.00;0.00;;;;;;;11.88;66.25;101142.28;6117094;23;20017;-70
2023/06/05 05:59:02;;;;;;;0.00;0.00;;;;;;;12.01;65.14;101157.53;6138433;23;20016;-70
2023/06/05 06:01:28;;;;;;;0.00;0.00;;;;;;;12.18;65.43;101162.91;6115565;23;20014;-70
2023/06/05 06:03:54;;;;;;;0.00;0.00;;;;;;;12.28;64.65;101165.75;6142764;23;20767;-71
2023/06/05 06:06:20;;;;;;;0.00;0.00;;;;;;;12.37;64.25;101164.19;6111462;23;20714;-70
2023/06/05 06:08:54;;;;;;;0.00;0.00;;;;;;;12.53;64.07;101167.09;6117427;23;20100;-72
2023/06/05 06:11:20;;;;;;;0.00;0.00;;;;;;;12.59;63.53;101149.56;6139157;23;20001;-73
2023/06/05 06:13:46;;;;;;;0.00;0.00;;;;;;;12.79;62.89;101148.06;6116619;23;20009;-73
2023/06/05 06:16:13;;;;;;;0.00;0.00;;;;;;;13.15;62.76;101173.84;6138444;22;20009;-71
2023/06/05 06:18:38;;;;;;;0.00;0.00;;;;;;;13.43;62.19;101169.94;6116942;23;20017;-72
2023/06/05 06:21:04;;;;;;;0.00;0.00;;;;;;;13.56;60.87;101167.78;6087760;23;20529;-70
2023/06/05 06:23:30;;;;;;;0.00;0.00;;;;;;;13.43;61.30;101164.44;6089701;23;20013;-70
2023/06/05 06:25:56;;;;;;;0.00;0.00;;;;;;;13.30;61.22;101162.13;6091668;23;20089;-71
2023/06/05 06:28:21;;;;;;;0.00;0.00;;;;;;;13.16;60.65;101171.94;6113015;23;20017;-73
2023/06/05 06:30:47;;;;;;;0.00;0.00;;;;;;;13.23;60.94;101167.03;6137333;23;20013;-72
2023/06/05 06:33:13;;;;;;;0.00;0.00;;;;;;;13.51;60.84;101170.53;6115974;23;20086;-72
2023/06/05 06:35:39;;;;;;;0.00;0.00;;;;;;;13.64;60.03;101175.53;6085409;23;20018;-73
2023/06/05 06:38:04;;;;;;;0.00;0.00;;;;;;;13.76;59.82;101178.03;6133605;23;20021;-72
2023/06/05 06:40:30;;;;;;;0.00;0.00;;;;;;;13.84;59.50;101176.69;6139058;23;20005;-72
2023/06/05 06:42:55;;;;;;;0.00;0.00;;;;;;;13.84;58.78;101185.75;6114981;23;20675;-74
2023/06/05 06:45:21;;;;;;;0.00;0.00;;;;;;;13.93;58.63;101195.16;6113941;23;20432;-74
2023/06/05 06:47:47;;;;;;;0.00;0.00;;;;;;;13.98;58.59;101185.28;6111907;23;20310;-72
2023/06/05 06:50:13;;;;;;;0.00;0.00;;;;;;;14.28;58.38;101190.00;6116889;23;20033;-74
2023/06/05 06:52:39;;;;;;;0.00;0.00;;;;;;;14.66;57.14;101191.47;6134838;22;20014;-73
2023/06/05 06:55:21;;;;;;;0.00;0.00;;;;;;;14.98;56.37;101197.78;6142834;23;20029;-72
2023/06/05 06:57:47;;;;;;;0.00;0.00;;;;;;;15.21;55.67;101195.53;6136180;23;20050;-72
2023/06/05 07:00:12;;;;;;;0.00;0.00;;;;;;;15.51;54.84;101194.66;6141356;23;20036;-72
2023/06/05 07:02:39;;;;;;;0.00;0.00;;;;;;;15.74;54.49;101193.19;6112011;23;20088;-72
2023/06/05 07:05:10;;;;;;;0.00;0.00;;;;;;;15.97;53.70;101174.34;6114752;22;20009;-73
2023/06/05 07:07:35;;;;;;;0.00;0.00;;;;;;;16.27;53.36;101178.88;6138707;23;20096;-72
2023/06/05 07:10:01;;;;;;;0.00;0.00;;;;;;;16.47;52.96;101200.00;6113589;23;20102;-73
2023/06/05 07:12:34;;;;;;;0.00;0.00;;;;;;;16.54;51.72;101200.50;6139943;23;20051;-72
2023/06/05 07:15:07;;;;;;;0.00;0.00;;;;;;;16.53;51.64;101198.84;6114824;23;20642;-73
2023/06/05 07:17:32;;;;;;;0.00;0.00;;;;;;;16.58;51.45;101207.06;6140282;23;20009;-71
2023/06/05 07:20:10;;;;;;;0.00;0.00;;;;;;;16.46;51.17;101187.28;6138304;23;20436;-73
2023/06/05 07:22:42;;;;;;;0.00;0.00;;;;;;;16.62;51.10;101195.44;6138938;22;20009;-72
2023/06/05 07:25:13;;;;;;;0.00;0.00;;;;;;;16.94;50.77;101211.53;6139102;23;20050;-73
2023/06/05 07:27:40;;;;;;;0.00;0.00;;;;;;;17.16;50.71;101202.75;6139772;23;20063;-72
2023/06/05 07:30:07;;;;;;;0.00;0.00;;;;;;;17.40;49.94;101201.94;6110285;23;20033;-72
2023/06/05 07:32:32;;;;;;;0.00;0.00;;;;;;;17.52;49.50;101210.66;6136698;23;20096;-71
2023/06/05 07:34:57;;;;;;;0.00;0.00;;;;;;;17.58;48.73;101214.16;6140217;23;20097;-72
2023/06/05 07:37:23;;;;;;;0.00;0.00;;;;;;;17.52;49.23;101207.91;6109246;23;20026;-72
2023/06/05 07:39:51;;;;;;;0.00;0.00;;;;;;;17.39;48.91;101208.56;6140547;23;20005;-73
2023/06/05 07:42:16;;;;;;;0.00;0.00;;;;;;;17.62;48.71;101223.53;6136457;23;20012;-73
2023/06/05 07:44:45;;;;;;;0.00;0.00;;;;;;;17.71;47.94;101212.66;6113370;23;20005;-73
2023/06/05 07:47:13;;;;;;;0.00;0.00;;;;;;;18.08;47.48;101224.94;6132876;23;20016;-73
2023/06/05 07:49:39;;;;;;;0.00;0.00;;;;;;;18.37;46.96;101222.06;6109984;23;20336;-72
2023/06/05 07:52:09;;;;;;;0.00;0.00;;;;;;;18.57;46.96;101204.28;6103379;23;20010;-72
2023/06/05 07:54:35;;;;;;;0.00;0.00;;;;;;;18.67;46.59;101234.63;6111467;23;20114;-73
2023/06/05 07:57:01;;;;;;;0.00;0.00;;;;;;;18.51;46.44;101215.75;6141815;23;20412;-74
2023/06/05 07:59:27;;;;;;;0.00;0.00;;;;;;;18.43;45.96;101231.09;6138782;23;20081;-72
2023/06/05 08:01:54;;;;;;;0.00;0.00;;;;;;;18.47;46.81;101219.13;6146058;23;20447;-76
2023/06/05 08:04:19;;;;;;;0.00;0.00;;;;;;;18.67;46.89;101212.44;6114378;23;20009;-74
2023/06/05 08:06:45;;;;;;;0.00;0.00;;;;;;;19.00;46.11;101226.34;6094476;23;20501;-74
2023/06/05 08:09:12;;;;;;;0.00;0.00;;;;;;;19.33;45.32;101231.00;6113773;23;20016;-73
2023/06/05 08:11:41;;;;;;;0.00;0.00;;;;;;;19.73;44.69;101223.03;6117019;23;20009;-72
2023/06/05 08:14:08;;;;;;;0.00;0.00;;;;;;;20.12;44.12;101220.84;6118258;23;20060;-73
2023/06/05 08:16:34;;;;;;;0.00;0.00;;;;;;;20.47;43.44;101223.97;6091853;23;20013;-73
2023/06/05 08:18:59;;;;;;;0.00;0.00;;;;;;;20.73;42.50;101227.81;6146601;23;20066;-73
2023/06/05 08:21:25;;;;;;;0.00;0.00;;;;;;;20.68;41.82;101219.59;6114743;23;20017;-79
2023/06/05 08:23:50;;;;;;;0.00;0.00;;;;;;;20.88;41.90;101223.00;6121203;23;20016;-76
2023/06/05 08:26:18;;;;;;;0.00;0.00;;;;;;;21.29;40.46;101227.50;6121535;23;20006;-77
2023/06/05 08:28:44;;;;;;;0.00;0.00;;;;;;;21.04;39.97;101220.63;6095164;23;20017;-77
2023/06/05 08:31:10;;;;;;;0.00;0.00;;;;;;;21.10;40.04;101242.44;6122051;23;20009;-77
2023/06/05 08:33:36;;;;;;;0.00;0.00;;;;;;;20.93;40.21;101222.88;6119710;23;20009;-77
2023/06/05 08:36:02;;;;;;;0.00;0.00;;;;;;;20.60;40.01;101211.97;6122442;23;20092;-77
2023/06/05 08:38:33;;;;;;;0.00;0.00;;;;;;;20.49;40.76;101228.06;6118047;23;20021;-77
2023/06/05 08:41:05;;;;;;;0.00;0.00;;;;;;;20.54;40.40;101202.13;6122001;23;20365;-77
2023/06/05 08:43:31;;;;;;;0.00;0.00;;;;;;;20.70;40.02;101208.16;6124065;23;20009;-78
2023/06/05 08:45:57;;;;;;;0.00;0.00;;;;;;;20.84;39.84;101203.34;6123053;23;20016;-78
2023/06/05 08:48:28;;;;;;;0.00;0.00;;;;;;;20.93;39.79;101209.78;6150696;23;20336;-77
2023/06/05 08:50:58;;;;;;;0.00;0.00;;;;;;;21.54;39.28;101222.41;6145656;23;20012;-78
2023/06/05 08:53:28;;;;;;;0.00;0.00;;;;;;;21.99;38.53;101219.44;6123784;23;20012;-78
2023/06/05 08:55:55;;;;;;;0.00;0.00;;;;;;;22.58;37.77;101230.16;6121603;23;20013;-77
2023/06/05 08:58:21;;;;;;;0.00;0.00;;;;;;;23.04;36.79;101218.63;6148855;23;20329;-78
2023/06/05 09:00:49;;;;;;;0.00;0.00;;;;;;;23.45;36.56;101214.41;6097968;23;20064;-76
2023/06/05 09:03:20;;;;;;;0.00;0.00;;;;;;;23.58;35.59;101218.13;6121205;23;20010;-76
2023/06/05 09:05:49;;;;;;;0.00;0.00;;;;;;;23.49;36.24;101205.03;6119193;23;20005;-75
2023/06/05 09:08:16;;;;;;;0.00;0.00;;;;;;;23.30;35.67;101218.56;6123010;23;20448;-76
2023/06/05 09:10:42;;;;;;;0.00;0.00;;;;;;;22.62;36.12;101192.13;6146288;23;20476;-76
2023/06/05 09:13:09;;;;;;;0.00;0.00;;;;;;;22.27;36.95;101200.47;6118610;23;20016;-77
2023/06/05 09:15:35;;;;;;;0.00;0.00;;;;;;;22.39;37.33;101213.78;6120599;23;20010;-75
2023/06/05 09:18:08;;;;;;;0.00;0.00;;;;;;;22.27;37.47;101216.38;6120177;23;20009;-76
2023/06/05 09:20:35;;;;;;;0.00;0.00;;;;;;;22.37;36.97;101212.44;6122944;23;20002;-76
2023/06/05 09:23:02;;;;;;;0.00;0.00;;;;;;;22.63;36.84;101223.59;6122981;23;20041;-77
2023/06/05 09:25:44;;;;;;;0.00;0.00;;;;;;;23.15;36.07;101206.81;6120763;23;20033;-76
2023/06/05 09:28:10;;;;;;;0.00;0.00;;;;;;;23.35;35.47;101207.25;6148720;23;20024;-75
2023/06/05 09:30:59;;;;;;;0.00;0.00;;;;;;;23.67;35.13;101227.28;6119888;23;20424;-77
2023/06/05 09:33:35;;;;;;;0.00;0.00;;;;;;;23.84;34.70;101216.03;6136969;22;20322;-77
2023/06/05 09:36:10;;;;;;;0.00;0.00;;;;;;;23.86;34.74;101212.94;6147484;23;20013;-79
2023/06/05 09:38:39;;;;;;;0.00;0.00;;;;;;;23.69;35.30;101208.25;6114415;23;20018;-78
2023/06/05 09:41:05;;;;;;;0.00;0.00;;;;;;;23.64;34.99;101200.03;6144776;23;20009;-76
2023/06/05 09:43:34;;;;;;;0.00;0.00;;;;;;;23.91;34.81;101214.72;6119765;23;20017;-76
2023/06/05 09:46:06;;;;;;;0.00;0.00;;;;;;;24.04;34.89;101208.06;6144199;23;20001;-76
2023/06/05 09:48:32;;;;;;;0.00;0.00;;;;;;;24.13;34.66;101208.00;6146047;23;20006;-77
2023/06/05 09:51:19;;;;;;;0.00;0.00;;;;;;;24.25;33.59;101226.81;6142492;23;20017;-76
2023/06/05 09:53:49;;;;;;;0.00;0.00;;;;;;;23.96;34.18;101204.19;6118098;22;20037;-76
2023/06/05 09:56:26;;;;;;;0.00;0.00;;;;;;;24.18;34.20;101203.03;6120389;23;20005;-77
2023/06/05 09:58:52;;;;;;;0.00;0.00;;;;;;;24.91;33.79;101207.34;6117690;22;20012;-77
2023/06/05 10:01:24;;;;;;;0.00;0.00;;;;;;;25.91;32.88;101230.69;6118066;23;20024;-77
2023/06/05 10:03:58;;;;;;;0.00;0.00;;;;;;;26.65;30.81;101225.75;6119861;23;20006;-76
2023/06/05 10:06:27;;;;;;;0.00;0.00;;;;;;;27.61;29.67;101214.72;6145799;22;20332;-78
2023/06/05 10:08:55;;;;;;;0.00;0.00;;;;;;;29.35;27.78;101219.16;6119400;23;20029;-77
2023/06/05 10:11:21;;;;;;;0.00;0.00;;;;;;;31.31;25.62;101207.31;6141952;22;20009;-77
2023/06/05 10:13:49;;;;;;;0.00;0.00;;;;;;;34.73;21.83;101235.56;6120406;23;20028;-77
2023/06/05 10:16:21;;;;;;;0.00;0.00;;;;;;;34.53;20.33;101212.53;6142101;23;20006;-77
2023/06/05 10:18:48;;;;;;;0.00;0.00;;;;;;;35.22;20.56;101216.59;6148296;23;20036;-76
2023/06/05 10:21:17;;;;;;;0.00;0.00;;;;;;;38.02;18.83;101211.25;6142450;23;20085;-76
2023/06/05 10:24:17;;;;;;;0.00;0.00;;;;;;;40.86;15.32;101205.31;6146850;23;20001;-78
2023/06/05 10:27:10;;;;;;;0.00;0.00;;;;;;;42.62;15.14;101211.88;6141311;23;20008;-77
2023/06/05 10:30:13;;;;;;;0.00;0.00;;;;;;;43.98;13.52;101210.25;6146308;23;20006;-79
2023/06/05 10:33:26;;;;;;;0.00;0.00;;;;;;;45.20;12.39;101215.97;6120515;23;20404;-79
2023/06/05 10:36:18;;;;;;;0.00;0.00;;;;;;;45.18;11.96;101206.97;6120399;23;20006;-78
2023/06/05 10:38:44;;;;;;;0.00;0.00;;;;;;;45.26;12.23;101190.91;6143120;22;20444;-77
2023/06/05 10:41:13;;;;;;;0.00;0.00;;;;;;;45.10;11.68;101182.69;6148344;23;20522;-77
2023/06/05 10:43:50;;;;;;;0.00;0.00;;;;;;;46.23;11.22;101182.06;6097064;23;20010;-78
2023/06/05 10:46:37;;;;;;;0.00;0.00;;;;;;;46.75;11.05;101189.50;6148509;23;20036;-77
2023/06/05 10:49:21;;;;;;;0.00;0.00;;;;;;;47.63;10.82;101181.72;6120035;23;20012;-77
2023/06/05 10:51:50;;;;;;;0.00;0.00;;;;;;;47.85;9.91;101186.22;6096964;23;20014;-77
2023/06/05 10:54:22;;;;;;;0.00;0.00;;;;;;;48.06;9.94;101179.03;6116339;23;20088;-78
2023/06/05 10:56:53;;;;;;;0.00;0.00;;;;;;;48.56;10.34;101169.19;6120600;23;20009;-76
2023/06/05 10:59:23;;;;;;;0.00;0.00;;;;;;;49.73;9.61;101181.13;6116129;23;20344;-75
2023/06/05 11:02:05;;;;;;;0.00;0.00;;;;;;;50.50;8.74;101176.44;6121455;23;20347;-77
2023/06/05 11:04:46;;;;;;;0.00;0.00;;;;;;;50.50;8.28;101171.44;6117281;23;20439;-76
2023/06/05 11:07:17;;;;;;;0.00;0.00;;;;;;;50.05;8.54;101169.31;6121633;23;20032;-76
2023/06/05 11:10:01;;;;;;;0.00;0.00;;;;;;;50.31;8.40;101159.56;6121922;23;20460;-75
2023/06/05 11:12:35;;;;;;;0.00;0.00;;;;;;;50.39;8.31;101159.81;6122016;23;20092;-77
2023/06/05 11:15:03;;;;;;;0.00;0.00;;;;;;;50.58;7.92;101145.50;6123512;23;20096;-77
2023/06/05 11:17:33;;;;;;;0.00;0.00;;;;;;;50.87;8.19;101152.06;6123219;23;20008;-76
2023/06/05 11:20:00;;;;;;;0.00;0.00;;;;;;;51.08;8.46;101156.22;6121377;23;20142;-77
2023/06/05 11:22:26;;;;;;;0.00;0.00;;;;;;;51.61;7.62;101144.56;6122777;23;20017;-75
2023/06/05 11:25:21;;;;;;;0.00;0.00;;;;;;;51.02;8.04;101146.72;6122217;23;20022;-77
2023/06/05 11:27:50;;;;;;;0.00;0.00;;;;;;;51.30;7.75;101142.88;6109850;23;20009;-77
2023/06/05 11:30:18;;;;;;;0.00;0.00;;;;;;;51.47;7.73;101139.88;6148496;23;20001;-77
2023/06/05 11:32:45;;;;;;;0.00;0.00;;;;;;;51.74;7.59;101135.22;6150279;23;20002;-78